Mc Ewensville, Pennsylvania
Current Conditions -  °F | °C
As of 10:54 PM on Sunday 25 Jan 2015 (Local Time) from KIPT Reporting Station
Light Snow Light Snow  
Wind Chill: 16°   Ceiling: 3400
Heat Index: 24°   Visibility: 3mi
Dew Point: 16°   Wind: 7mph
Humidity: 71%   Direction: 40°NE
Pressure: 29.98"   Gusts: NA
Location:  41.0747°N, 76.8178°W
Report Text: KIPT 260354Z AUTO 04006KT 3SM -SN OVC034 M04/M09 A2998 RMK AO2 SNB0256 SLP157 P0000 T10441089
Loading
Personal Weather Stations






























Interactive Weather Map New forecast layout! Learn more

10-Day Weather Forecast

Advertisements
Track Severe Weather on mobile